Portada
METAR-TAF:

METAR-TAF

Aeroports :

Marshall, Missouri, Estats Units d'Amèrica

latitud: 39-05-44N, longitud: 093-12-10W, altitud: 237 m

Observació

L'informe es va fer fa 26 minuts, a les 19:55 UTC
Vent 3 kt del Oest/Nord-Oest
Temperatura 2°C
Humitat 69%
Pressió 1021 hPa
Visibilitat: 16.1 km
Cel clar

METAR: KMHL 221955Z AUTO 29003KT 10SM CLR 02/M03 A3016 RMK AO2 TSNO PWINO

Hora: 14:21 (20:21 UTC)


TAF: manca

Observacions i pronòstics meteorològics de més de 4000 aeroports (METAR i TAF).

Les estacions disponibles són els punts grocs i vermells al mapa.

Posi el ratolí al punt desitjat per veure el nom de l'estació.

Feu clic per veure les observacions i els pronòstics meteorològics.

Per canviar el mapa: feu clic els botons verds amb una creu de color negre per apropar; al botó verd amb un guió per allunyar la imatge; o en les fletxes verdes per a mapes adjacents.


METAR-TAF: